Thunder radar more information blitzortung!


Löydät sääaseman tiedot myös:

European Weather Network

Finland Weather Exchange

Weather Underground

AWEKAS



Weather Underground säähistoriasivu

Päivittäin yhteenveto Lokakuu 4, 2017 Yksiköt:  Englantilaiset    Metriset   Molemmat
« Edellinen Päivä
Seuraava Päivä »
Päivittäin Viikoittain Kuukausittain Vuosittain Mukautettu
  Korkea: Matala: Keskiarvo:
Lämpötila: TemperatureC °F 7.8 °F 9.4 °F
Kastepiste: DewpointC °F 7.2 °F 8.8 °F
Kosteus: Humidity % 91 % 95 %
Tuulen nopeus: WindSpeedKMH mph 0.0 mph 0 mph
Tuulenpuuska: WindSpeedGustKMH mph - -
Tuuli:- - North
Ilmanpaine: PressurehPa in 985.3 in -
Sade: 0.0 in    
Historical Graphs
 
 
Taulukkotiedot Lokakuu 4, 2017
Aika Lämpötila Kastepiste Ilmanpaine Tuuli Tuulen nopeus Tuulenpuuska Kosteus Sademäärä (tunneittain)
TemperatureC °F DewpointC °F PressurehPa in Calm     Humidity % HourlyPrecipMM in
00:00 8.8 °F 8.2 °F 995.1 in Calm     96 % 0.0 in
00:15 8.8 °F 8.2 °F 994.8 in Calm     96 % 0.0 in
00:30 8.8 °F 8.2 °F 994.8 in Calm     96 % 0.0 in
00:45 8.8 °F 8.2 °F 994.5 in Calm     96 % 0.0 in
01:00 8.8 °F 8.2 °F 994.1 in Calm     96 % 0.0 in
01:15 8.8 °F 8.2 °F 993.8 in Calm     96 % 0.0 in
01:30 8.8 °F 8.3 °F 993.8 in Calm     97 % 0.0 in
01:45 8.8 °F 8.4 °F 993.5 in Calm     97 % 0.0 in
02:00 8.8 °F 8.4 °F 993.5 in Calm     97 % 0.0 in
02:15 8.9 °F 8.4 °F 993.1 in Calm     97 % 0.0 in
02:30 8.9 °F 8.5 °F 993.1 in Calm     97 % 0.0 in
02:45 9.0 °F 8.5 °F 992.8 in Calm     97 % 0.0 in
03:00 9.1 °F 8.6 °F 992.8 in Calm     97 % 0.0 in
03:15 9.1 °F 8.6 °F 992.4 in Calm     97 % 0.0 in
03:30 9.1 °F 8.7 °F 992.1 in Calm     97 % 0.0 in
03:45 9.1 °F 8.7 °F 991.8 in Calm     97 % 0.0 in
04:00 9.1 °F 8.7 °F 991.4 in Calm     97 % 0.0 in
04:30 9.3 °F 8.8 °F 991.4 in Calm     97 % 0.0 in
04:45 9.3 °F 8.9 °F 991.1 in Calm     97 % 0.0 in
05:00 9.3 °F 8.9 °F 991.1 in Calm     97 % 0.0 in
05:15 9.4 °F 8.9 °F 990.7 in Calm     97 % 0.0 in
05:30 9.4 °F 8.9 °F 990.7 in Calm     97 % 0.0 in
05:45 9.4 °F 9.0 °F 990.4 in Calm     97 % 0.0 in
06:00 9.4 °F 9.0 °F 990.4 in Calm     97 % 0.0 in
06:15 9.5 °F 9.2 °F 990.4 in Calm     98 % 0.0 in
06:30 9.6 °F 9.3 °F 990.4 in Calm     98 % 0.0 in
06:45 9.6 °F 9.3 °F 990.4 in Calm     98 % 0.0 in
07:00 9.6 °F 9.3 °F 990.1 in Calm     98 % 0.0 in
07:15 9.7 °F 9.4 °F 990.1 in Calm     98 % 0.0 in
07:30 9.6 °F 9.3 °F 989.7 in Calm     98 % 0.0 in
07:45 9.5 °F 9.0 °F 989.7 in Calm     97 % 0.0 in
08:00 9.3 °F 8.9 °F 989.7 in Calm     97 % 0.0 in
08:15 9.3 °F 8.8 °F 989.7 in Calm     97 % 0.0 in
08:30 9.3 °F 9.0 °F 989.4 in Calm     98 % 0.0 in
08:45 9.3 °F 9.0 °F 989.4 in Calm     98 % 0.0 in
09:00 9.4 °F 9.1 °F 989.1 in Calm     98 % 0.0 in
09:15 9.4 °F 9.1 °F 989.1 in Calm     98 % 0.0 in
09:45 9.8 °F 9.5 °F 988.7 in Calm     98 % 0.0 in
10:00 10.1 °F 9.8 °F 988.7 in Calm     98 % 0.0 in
10:15 10.2 °F 9.9 °F 988.7 in Calm     98 % 0.0 in
10:30 10.5 °F 10.2 °F 988.4 in Calm     98 % 0.0 in
10:45 10.7 °F 10.4 °F 988.4 in Calm     98 % 0.0 in
11:00 10.8 °F 10.5 °F 988.0 in Calm     98 % 0.0 in
11:15 10.7 °F 10.3 °F 988.0 in Calm     97 % 0.0 in
11:30 10.7 °F 10.3 °F 988.0 in Calm     97 % 0.0 in
11:45 10.8 °F 10.3 °F 988.0 in Calm     97 % 0.0 in
12:00 10.8 °F 10.3 °F 988.0 in Calm     97 % 0.0 in
12:15 10.7 °F 10.3 °F 988.0 in Calm     97 % 0.0 in
12:30 10.4 °F 9.8 °F 987.7 in Calm     96 % 0.0 in
12:45 10.5 °F 10.0 °F 987.7 in Calm     97 % 0.0 in
13:00 10.5 °F 9.9 °F 987.7 in Calm     96 % 0.0 in
13:15 10.4 °F 9.8 °F 987.4 in Calm     96 % 0.0 in
13:30 10.7 °F 10.3 °F 987.4 in Calm     97 % 0.0 in
13:45 10.8 °F 9.9 °F 987.4 in Calm     94 % 0.0 in
14:00 10.7 °F 10.0 °F 987.4 in Calm     95 % 0.0 in
14:15 10.7 °F 10.0 °F 987.4 in Calm     95 % 0.0 in
14:30 10.7 °F 9.9 °F 987.0 in Calm     95 % 0.0 in
14:45 10.8 °F 10.0 °F 987.0 in Calm     95 % 0.0 in
15:00 10.7 °F 10.0 °F 987.0 in Calm     95 % 0.0 in
15:15 10.9 °F 10.1 °F 987.0 in Calm     95 % 0.0 in
15:30 11.0 °F 9.7 °F 987.0 in Calm     92 % 0.0 in
15:45 10.9 °F 9.5 °F 986.7 in Calm     91 % 0.0 in
16:00 10.8 °F 9.4 °F 986.7 in Calm     91 % 0.0 in
16:15 10.7 °F 9.4 °F 986.7 in Calm     92 % 0.0 in
16:30 10.6 °F 9.5 °F 986.7 in Calm     93 % 0.0 in
16:45 10.5 °F 9.1 °F 986.7 in Calm     91 % 0.0 in
17:00 10.3 °F 9.3 °F 986.7 in Calm     93 % 0.0 in
17:15 10.2 °F 9.2 °F 986.3 in Calm     94 % 0.0 in
17:30 10.0 °F 9.1 °F 986.3 in Calm     94 % 0.0 in
17:45 9.9 °F 9.0 °F 986.3 in Calm     94 % 0.0 in
18:00 9.8 °F 8.9 °F 986.3 in Calm     94 % 0.0 in
18:15 9.6 °F 8.5 °F 986.3 in Calm     93 % 0.0 in
18:30 9.3 °F 8.3 °F 986.3 in Calm     93 % 0.0 in
18:45 9.1 °F 8.2 °F 986.0 in Calm     94 % 0.0 in
19:00 9.0 °F 8.1 °F 986.0 in Calm     94 % 0.0 in
19:15 8.9 °F 8.0 °F 986.0 in Calm     94 % 0.0 in
19:30 8.9 °F 7.8 °F 986.0 in Calm     93 % 0.0 in
19:45 8.8 °F 7.8 °F 986.0 in Calm     93 % 0.0 in
20:00 8.7 °F 7.6 °F 986.0 in Calm     93 % 0.0 in
20:15 8.6 °F 7.5 °F 986.0 in Calm     93 % 0.0 in
20:30 8.4 °F 7.5 °F 986.0 in Calm     94 % 0.0 in
20:45 8.3 °F 7.6 °F 985.7 in Calm     95 % 0.0 in
21:00 8.3 °F 7.5 °F 985.7 in Calm     95 % 0.0 in
21:15 8.2 °F 7.5 °F 985.7 in Calm     95 % 0.0 in
21:30 8.2 °F 7.6 °F 985.7 in Calm     96 % 0.0 in
21:45 8.2 °F 7.6 °F 985.3 in Calm     96 % 0.0 in
22:00 8.2 °F 7.6 °F 985.3 in Calm     96 % 0.0 in
22:30 8.0 °F 7.4 °F 985.3 in Calm     96 % 0.0 in
22:45 7.9 °F 7.3 °F 985.3 in Calm     96 % 0.0 in
23:00 7.9 °F 7.3 °F 985.3 in Calm     96 % 0.0 in
23:15 7.9 °F 7.3 °F 985.3 in Calm     96 % 0.0 in
23:30 7.8 °F 7.2 °F 985.3 in Calm     96 % 0.0 in
23:45 7.9 °F 7.3 °F 985.3 in Calm     96 % 0.0 in
Esan sääasema
Terveisin Weather Underground - 2.75 mb

Alkuperäinen skripti  Jim McMurry - jmcmurry@mwt.net Sovitettu myös templatelle  Wim van der Kuil - Leuven-Template.eu

Laitteet joita käytämme:

Sääasema
Davis VP2

Sääasemaohjelma
Cumulus

Sääaseman tietokone
Asus EeePC

Palveluntarjoaja
Suncomet

Davis VP2

Cumulus

Asus EeePC

Suncomet